createdAt,value
2022-09-04T00:01:45.090Z,52.30
2022-09-04T00:04:24.225Z,52.00
2022-09-04T00:07:01.530Z,51.80
2022-09-04T00:09:35.443Z,51.70
2022-09-04T00:12:08.875Z,51.50
2022-09-04T00:14:44.548Z,53.50
2022-09-04T00:17:20.488Z,55.00
2022-09-04T00:19:56.361Z,52.70
2022-09-04T00:22:35.092Z,51.40
2022-09-04T00:25:13.911Z,51.00
2022-09-04T00:27:47.770Z,50.80
2022-09-04T00:30:21.563Z,50.80
2022-09-04T00:32:56.043Z,50.90
2022-09-04T00:35:32.403Z,50.70
2022-09-04T00:38:05.235Z,50.40
2022-09-04T00:40:35.850Z,50.30
2022-09-04T00:43:22.136Z,50.30
2022-09-04T00:46:25.013Z,50.20
2022-09-04T00:49:30.158Z,50.20
2022-09-04T00:52:09.298Z,50.60
2022-09-04T00:54:53.664Z,49.80
2022-09-04T00:58:01.377Z,49.70
2022-09-04T01:00:30.873Z,49.70
2022-09-04T01:03:35.972Z,49.40
2022-09-04T01:06:29.570Z,49.40
2022-09-04T01:09:32.455Z,49.10
2022-09-04T01:12:09.897Z,49.10
2022-09-04T01:14:43.209Z,48.90
2022-09-04T01:17:19.532Z,48.80
2022-09-04T01:19:56.353Z,48.90
2022-09-04T01:22:56.327Z,48.80
2022-09-04T01:25:35.917Z,48.80
2022-09-04T01:28:11.905Z,48.50
2022-09-04T01:30:48.833Z,48.50
2022-09-04T01:33:24.235Z,48.70
2022-09-04T01:35:59.013Z,48.50
2022-09-04T01:38:36.390Z,48.40
2022-09-04T01:41:14.497Z,48.20
2022-09-04T01:43:44.446Z,48.20
2022-09-04T01:46:33.443Z,48.20
2022-09-04T01:49:08.380Z,48.30
2022-09-04T01:51:41.631Z,48.20
2022-09-04T01:54:31.276Z,48.00
2022-09-04T01:57:10.443Z,48.10
2022-09-04T01:59:53.684Z,47.80
2022-09-04T02:02:29.760Z,47.90
2022-09-04T02:05:08.494Z,47.90
2022-09-04T02:07:46.360Z,48.00
2022-09-04T02:10:29.406Z,48.20
2022-09-04T02:13:09.238Z,48.20
2022-09-04T02:15:46.556Z,48.10
2022-09-04T02:18:27.634Z,48.30
2022-09-04T02:21:02.360Z,48.40
2022-09-04T02:23:38.010Z,48.40
2022-09-04T02:26:18.203Z,48.50
2022-09-04T02:28:59.050Z,48.40
2022-09-04T02:31:38.753Z,48.40
2022-09-04T02:34:14.540Z,48.30
2022-09-04T02:36:50.175Z,48.20
2022-09-04T02:39:32.218Z,48.20
2022-09-04T02:42:05.309Z,48.50
2022-09-04T02:44:46.416Z,48.40
2022-09-04T02:47:29.196Z,48.30
2022-09-04T02:50:03.757Z,48.20
2022-09-04T02:52:49.803Z,48.30
2022-09-04T02:55:29.105Z,48.50
2022-09-04T02:58:10.190Z,48.60
2022-09-04T03:00:47.361Z,48.20
2022-09-04T03:03:22.371Z,48.20
2022-09-04T03:05:57.764Z,48.20
2022-09-04T03:08:36.424Z,48.40
2022-09-04T03:11:11.360Z,48.30
2022-09-04T03:13:50.937Z,48.20
2022-09-04T03:16:28.791Z,48.20
2022-09-04T03:19:12.842Z,48.30
2022-09-04T03:21:57.992Z,48.40
2022-09-04T03:24:34.508Z,48.40
2022-09-04T03:27:05.839Z,48.40
2022-09-04T03:29:43.981Z,48.50
2022-09-04T03:32:19.130Z,48.30
2022-09-04T03:34:58.813Z,48.10
2022-09-04T03:37:39.689Z,48.00
2022-09-04T03:40:34.540Z,48.50
2022-09-04T03:43:17.784Z,47.80
2022-09-04T03:45:56.190Z,47.90
2022-09-04T03:48:46.830Z,48.10
2022-09-04T03:51:25.864Z,48.10
2022-09-04T03:54:10.121Z,48.00
2022-09-04T03:57:12.032Z,47.80
2022-09-04T03:59:55.925Z,48.20
2022-09-04T04:02:35.247Z,48.10
2022-09-04T04:05:29.252Z,48.10
2022-09-04T04:08:27.501Z,48.50
2022-09-04T04:11:05.403Z,48.40
2022-09-04T04:13:55.207Z,48.40
2022-09-04T04:16:40.644Z,48.60
2022-09-04T04:19:48.488Z,51.30
2022-09-04T04:22:40.472Z,49.90
2022-09-04T04:25:26.422Z,48.90
2022-09-04T04:28:17.226Z,48.60
2022-09-04T04:30:50.419Z,48.50
2022-09-04T04:33:43.765Z,48.60
2022-09-04T04:36:26.329Z,48.80
2022-09-04T04:39:02.540Z,48.90
2022-09-04T04:42:06.572Z,48.70
2022-09-04T04:45:15.458Z,48.50
2022-09-04T04:48:11.718Z,48.70
2022-09-04T04:50:47.788Z,48.90
2022-09-04T04:53:25.466Z,48.80
2022-09-04T04:56:00.901Z,49.00
2022-09-04T04:58:57.123Z,49.10
2022-09-04T05:01:43.412Z,49.10
2022-09-04T05:04:18.909Z,49.40
2022-09-04T05:06:54.108Z,49.10
2022-09-04T05:09:35.891Z,49.10
2022-09-04T05:12:10.626Z,49.20
2022-09-04T05:14:51.547Z,49.10
2022-09-04T05:17:28.555Z,49.10
2022-09-04T05:20:24.401Z,49.00
2022-09-04T05:23:01.883Z,48.90
2022-09-04T05:25:38.820Z,48.90
2022-09-04T05:28:20.629Z,48.70
2022-09-04T05:30:57.309Z,48.90
2022-09-04T05:33:35.884Z,48.90
2022-09-04T05:36:12.292Z,49.00
2022-09-04T05:38:52.080Z,48.80
2022-09-04T05:41:39.186Z,48.90
2022-09-04T05:44:30.864Z,48.90
2022-09-04T05:47:10.109Z,48.90
2022-09-04T05:49:56.897Z,48.30
2022-09-04T05:52:51.836Z,48.50
2022-09-04T05:55:34.428Z,48.70
2022-09-04T05:58:26.791Z,48.70
2022-09-04T06:01:08.320Z,48.40
2022-09-04T06:03:58.448Z,47.80
2022-09-04T06:06:37.797Z,48.00
2022-09-04T06:09:28.654Z,48.00
2022-09-04T06:12:19.537Z,47.90
2022-09-04T06:15:17.142Z,47.60
2022-09-04T06:18:02.146Z,46.30
2022-09-04T06:21:03.973Z,46.10
2022-09-04T06:24:10.948Z,44.60
2022-09-04T06:26:58.388Z,45.00
2022-09-04T06:29:46.990Z,44.90
2022-09-04T06:32:49.229Z,44.30
2022-09-04T06:35:45.061Z,44.30
2022-09-04T06:38:27.254Z,44.30
2022-09-04T06:41:08.584Z,44.90
2022-09-04T06:43:48.663Z,45.00
2022-09-04T06:46:23.316Z,45.20
2022-09-04T06:49:02.857Z,45.20
2022-09-04T06:51:54.308Z,45.30
2022-09-04T06:54:37.401Z,45.20
2022-09-04T06:57:29.635Z,45.20
2022-09-04T07:00:06.267Z,45.70
2022-09-04T07:03:00.216Z,45.50
2022-09-04T07:05:33.181Z,45.30
2022-09-04T07:08:13.196Z,44.80
2022-09-04T07:10:45.403Z,44.20
2022-09-04T07:13:40.782Z,42.70
2022-09-04T07:16:39.167Z,42.00
2022-09-04T07:19:43.696Z,40.80
2022-09-04T07:22:36.214Z,40.90
2022-09-04T07:25:18.545Z,41.30
2022-09-04T07:28:01.581Z,40.70
2022-09-04T07:30:38.016Z,40.20
2022-09-04T07:33:20.498Z,40.40
2022-09-04T07:35:57.958Z,40.40
2022-09-04T07:38:37.815Z,40.20
2022-09-04T07:41:09.402Z,40.20
2022-09-04T07:43:55.183Z,39.20
2022-09-04T07:46:30.392Z,38.50
2022-09-04T07:49:04.362Z,39.00
2022-09-04T07:51:35.307Z,39.30
2022-09-04T07:54:13.486Z,38.80
2022-09-04T07:57:04.819Z,39.20
2022-09-04T07:59:47.762Z,39.40
2022-09-04T08:02:21.208Z,38.70
2022-09-04T08:05:13.025Z,39.30
2022-09-04T08:08:04.747Z,39.50
2022-09-04T08:10:36.532Z,39.60
2022-09-04T08:13:25.196Z,39.20
2022-09-04T08:16:05.724Z,39.70
2022-09-04T08:18:55.899Z,39.30
2022-09-04T08:21:27.747Z,39.30
2022-09-04T08:24:34.393Z,39.00
2022-09-04T08:27:24.695Z,38.60
2022-09-04T08:30:04.690Z,38.20
2022-09-04T08:33:11.532Z,38.60
2022-09-04T08:35:49.003Z,38.30
2022-09-04T08:38:32.875Z,38.10
2022-09-04T08:41:33.272Z,37.80
2022-09-04T08:44:37.404Z,38.30
2022-09-04T08:47:49.396Z,38.60
2022-09-04T08:50:38.392Z,38.80
2022-09-04T08:53:51.236Z,38.50
2022-09-04T08:56:31.044Z,37.90
2022-09-04T08:59:29.371Z,37.70
2022-09-04T09:02:18.648Z,38.00
2022-09-04T09:05:26.924Z,38.10
2022-09-04T09:08:14.812Z,38.00
2022-09-04T09:11:02.230Z,38.20
2022-09-04T09:14:08.013Z,37.80
2022-09-04T09:16:44.331Z,37.00
2022-09-04T09:19:22.871Z,36.90
2022-09-04T09:22:24.652Z,37.40
2022-09-04T09:25:16.764Z,37.30
2022-09-04T09:28:17.850Z,37.20
2022-09-04T09:31:02.514Z,37.30
2022-09-04T09:33:40.953Z,37.40
2022-09-04T09:36:27.487Z,37.40
2022-09-04T09:39:16.596Z,37.70
2022-09-04T09:42:05.640Z,37.50
2022-09-04T09:44:52.088Z,37.40
2022-09-04T09:47:38.208Z,37.60
2022-09-04T09:50:48.106Z,37.90
2022-09-04T09:53:47.406Z,38.10
2022-09-04T09:56:30.536Z,38.20
2022-09-04T09:59:07.186Z,38.30
2022-09-04T10:02:02.090Z,38.10
2022-09-04T10:05:00.171Z,37.50
2022-09-04T10:08:14.454Z,37.40
2022-09-04T10:11:06.983Z,37.90
2022-09-04T10:14:01.956Z,37.10
2022-09-04T10:17:07.644Z,37.40
2022-09-04T10:20:17.849Z,37.30
2022-09-04T10:23:12.035Z,37.00
2022-09-04T10:26:17.012Z,36.90
2022-09-04T10:29:26.682Z,37.40
2022-09-04T10:32:07.973Z,39.50
2022-09-04T10:35:05.179Z,39.30
2022-09-04T10:37:50.282Z,37.10
2022-09-04T10:40:38.535Z,36.50
2022-09-04T10:43:26.550Z,37.40
2022-09-04T10:46:04.084Z,38.80
2022-09-04T10:49:06.280Z,38.10
2022-09-04T10:52:00.468Z,37.30
2022-09-04T10:55:14.899Z,37.30
2022-09-04T10:57:59.963Z,37.50
2022-09-04T11:00:36.845Z,37.40
2022-09-04T11:03:29.108Z,37.40
2022-09-04T11:06:26.638Z,37.10
2022-09-04T11:09:23.746Z,37.40
2022-09-04T11:12:13.301Z,35.00
2022-09-04T11:15:08.080Z,35.70
2022-09-04T11:18:29.808Z,36.10
2022-09-04T11:21:35.140Z,36.30
2022-09-04T11:25:00.042Z,36.90
2022-09-04T11:28:00.124Z,36.40
2022-09-04T11:30:39.520Z,35.80
2022-09-04T11:33:48.451Z,35.60
2022-09-04T11:36:48.150Z,35.00
2022-09-04T11:39:53.423Z,34.90
2022-09-04T11:42:31.195Z,36.00
2022-09-04T11:45:31.778Z,35.70
2022-09-04T11:48:43.165Z,35.10
2022-09-04T11:51:42.957Z,35.70
2022-09-04T11:54:38.328Z,36.00
2022-09-04T11:57:16.794Z,36.50
2022-09-04T12:00:03.796Z,35.60
2022-09-04T12:03:03.269Z,35.30
2022-09-04T12:05:59.571Z,34.80
2022-09-04T12:08:55.204Z,35.60
2022-09-04T12:11:53.916Z,34.80
2022-09-04T12:14:44.017Z,34.90
2022-09-04T12:17:48.460Z,35.40
2022-09-04T12:20:45.523Z,35.30
2022-09-04T12:23:38.319Z,34.70
2022-09-04T12:26:23.777Z,34.90
2022-09-04T12:29:20.486Z,34.80
2022-09-04T12:32:21.381Z,35.50
2022-09-04T12:35:17.266Z,34.30
2022-09-04T12:38:12.741Z,34.60
2022-09-04T12:40:53.699Z,34.00
2022-09-04T12:43:34.590Z,34.80
2022-09-04T12:46:17.336Z,34.70
2022-09-04T12:48:58.891Z,35.20
2022-09-04T12:51:35.964Z,34.40
2022-09-04T12:54:17.884Z,34.50
2022-09-04T12:56:56.793Z,34.60
2022-09-04T12:59:45.875Z,33.40
2022-09-04T13:02:18.447Z,33.20
2022-09-04T13:04:50.442Z,33.10
2022-09-04T13:07:26.347Z,33.30
2022-09-04T13:09:58.287Z,33.30
2022-09-04T13:12:32.715Z,33.40
2022-09-04T13:15:07.908Z,32.60
2022-09-04T13:17:43.896Z,33.00
2022-09-04T13:20:18.863Z,33.20
2022-09-04T13:22:58.807Z,32.80
2022-09-04T13:25:32.703Z,32.70
2022-09-04T13:28:08.707Z,33.00
2022-09-04T13:30:43.252Z,33.00
2022-09-04T13:33:18.599Z,33.10
2022-09-04T13:36:16.571Z,33.10
2022-09-04T13:39:04.682Z,32.60
2022-09-04T13:41:50.846Z,32.50
2022-09-04T13:44:38.442Z,32.40
2022-09-04T13:47:08.186Z,32.00
2022-09-04T13:49:39.077Z,31.80
2022-09-04T13:52:10.581Z,31.70
2022-09-04T13:54:41.020Z,31.90
2022-09-04T13:57:16.158Z,32.00
2022-09-04T13:59:48.071Z,31.90
2022-09-04T14:02:16.357Z,31.80
2022-09-04T14:04:48.050Z,31.80
2022-09-04T14:07:24.759Z,32.40
2022-09-04T14:09:59.348Z,32.40
2022-09-04T14:12:39.735Z,33.80
2022-09-04T14:15:30.865Z,34.70
2022-09-04T14:18:13.956Z,34.60
2022-09-04T14:20:51.800Z,35.10
2022-09-04T14:23:25.873Z,35.10
2022-09-04T14:26:00.792Z,36.00
2022-09-04T14:28:38.247Z,35.30
2022-09-04T14:31:16.881Z,35.20
2022-09-04T14:33:53.516Z,35.30
2022-09-04T14:36:35.874Z,35.30
2022-09-04T14:39:21.355Z,35.40
2022-09-04T14:42:13.403Z,34.90
2022-09-04T14:44:56.415Z,35.30
2022-09-04T14:47:31.020Z,35.20
2022-09-04T14:50:02.354Z,35.10
2022-09-04T14:52:39.189Z,34.60
2022-09-04T14:55:16.619Z,35.00
2022-09-04T14:57:51.350Z,35.00
2022-09-04T15:00:22.253Z,34.90
2022-09-04T15:03:02.459Z,34.70
2022-09-04T15:05:35.528Z,34.80
2022-09-04T15:08:07.603Z,34.90
2022-09-04T15:10:47.720Z,35.20
2022-09-04T15:13:40.968Z,34.80
2022-09-04T15:16:29.206Z,34.40
2022-09-04T15:19:06.472Z,34.70
2022-09-04T15:21:44.519Z,34.70
2022-09-04T15:24:27.813Z,35.10
2022-09-04T15:27:03.872Z,35.20
2022-09-04T15:29:38.491Z,35.60
2022-09-04T15:32:12.273Z,34.90
2022-09-04T15:34:44.470Z,35.40
2022-09-04T15:37:22.217Z,35.40
2022-09-04T15:40:01.358Z,35.60
2022-09-04T15:42:41.349Z,35.70
2022-09-04T15:45:19.437Z,34.90
2022-09-04T15:48:24.423Z,34.40
2022-09-04T15:50:58.497Z,34.50
2022-09-04T15:53:28.054Z,33.40
2022-09-04T15:56:09.450Z,32.90
2022-09-04T15:58:49.313Z,33.10
2022-09-04T16:01:20.293Z,33.00
2022-09-04T16:04:07.365Z,33.00
2022-09-04T16:06:48.031Z,33.20
2022-09-04T16:09:24.319Z,33.00
2022-09-04T16:12:01.625Z,33.20
2022-09-04T16:14:32.851Z,33.30
2022-09-04T16:17:02.681Z,33.60
2022-09-04T16:19:34.102Z,33.40
2022-09-04T16:22:08.051Z,33.30
2022-09-04T16:24:41.548Z,33.30
2022-09-04T16:27:13.647Z,33.40
2022-09-04T16:29:45.206Z,33.60
2022-09-04T16:32:19.609Z,33.70
2022-09-04T16:34:51.238Z,33.40
2022-09-04T16:37:26.942Z,33.50
2022-09-04T16:40:12.951Z,33.80
2022-09-04T16:42:47.617Z,33.90
2022-09-04T16:45:21.148Z,33.90
2022-09-04T16:47:56.743Z,35.40
2022-09-04T16:50:35.674Z,36.10
2022-09-04T16:53:14.799Z,36.10
2022-09-04T16:55:54.815Z,36.20
2022-09-04T16:58:40.063Z,36.40
2022-09-04T17:01:16.890Z,36.30
2022-09-04T17:04:11.282Z,37.10
2022-09-04T17:06:47.990Z,37.70
2022-09-04T17:09:25.511Z,37.90
2022-09-04T17:11:59.256Z,37.90
2022-09-04T17:14:35.325Z,38.00
2022-09-04T17:17:31.365Z,38.30
2022-09-04T17:20:12.245Z,38.30
2022-09-04T17:28:59.757Z,38.60
2022-09-04T17:29:01.869Z,38.40
2022-09-04T17:29:29.659Z,38.50
2022-09-04T17:31:54.449Z,38.40
2022-09-04T17:40:32.674Z,38.80
2022-09-04T17:40:53.606Z,39.20
2022-09-04T17:43:32.912Z,38.80
2022-09-04T17:46:15.848Z,38.50
2022-09-04T17:48:46.941Z,38.60
2022-09-04T17:51:17.441Z,39.10
2022-09-04T17:53:48.553Z,39.30
2022-09-04T17:56:21.422Z,39.40
2022-09-04T17:58:50.784Z,40.10
2022-09-04T18:01:21.816Z,40.50
2022-09-04T18:04:19.980Z,40.60
2022-09-04T18:06:49.593Z,41.40
2022-09-04T18:09:26.794Z,42.20
2022-09-04T18:12:03.314Z,42.60
2022-09-04T18:14:37.394Z,43.20
2022-09-04T18:17:11.884Z,43.70
2022-09-04T18:19:44.955Z,44.10
2022-09-04T18:22:26.481Z,44.10
2022-09-04T18:25:16.673Z,44.50
2022-09-04T18:28:11.427Z,44.60
2022-09-04T18:33:50.479Z,44.80
2022-09-04T18:37:18.589Z,45.10
2022-09-04T18:37:26.210Z,45.90
2022-09-04T18:39:25.257Z,46.20
2022-09-04T18:49:03.049Z,46.60
2022-09-04T18:50:29.376Z,46.60
2022-09-04T18:50:51.556Z,46.60
2022-09-04T18:51:12.493Z,46.80
2022-09-04T18:53:25.841Z,46.60
2022-09-04T18:55:57.997Z,46.60
2022-09-04T18:58:38.272Z,46.60
2022-09-04T19:01:11.462Z,46.90
2022-09-04T19:03:42.832Z,47.10
2022-09-04T19:06:12.728Z,47.20
2022-09-04T19:08:45.721Z,47.10
2022-09-04T19:11:20.967Z,47.20
2022-09-04T19:13:51.354Z,47.30
2022-09-04T19:16:25.131Z,47.30
2022-09-04T19:18:59.726Z,47.50
2022-09-04T19:21:32.559Z,47.40
2022-09-04T19:24:07.200Z,47.40
2022-09-04T19:26:37.448Z,47.70
2022-09-04T19:29:10.129Z,48.00
2022-09-04T19:31:42.221Z,48.10
2022-09-04T19:34:15.669Z,48.20
2022-09-04T19:36:47.880Z,48.40
2022-09-04T19:45:57.833Z,48.60
2022-09-04T19:46:03.652Z,48.80
2022-09-04T19:46:15.407Z,48.70
2022-09-04T19:48:05.713Z,48.70
2022-09-04T19:53:22.449Z,48.70
2022-09-04T19:53:40.561Z,48.90
2022-09-04T19:56:22.359Z,48.70
2022-09-04T19:58:52.705Z,48.50
2022-09-04T20:01:23.360Z,48.40
2022-09-04T20:03:56.471Z,48.50
2022-09-04T20:06:27.360Z,48.70
2022-09-04T20:08:59.537Z,48.80
2022-09-04T20:11:35.826Z,48.70
2022-09-04T20:14:13.745Z,48.60
2022-09-04T20:16:51.463Z,48.40
2022-09-04T20:19:27.631Z,48.40
2022-09-04T20:21:59.855Z,48.50
2022-09-04T20:24:30.160Z,48.40
2022-09-04T20:27:01.732Z,48.20
2022-09-04T20:29:34.529Z,48.10
2022-09-04T20:32:09.129Z,48.10
2022-09-04T20:34:44.706Z,48.20
2022-09-04T20:37:33.707Z,48.10
2022-09-04T20:40:12.042Z,47.90
2022-09-04T20:42:42.659Z,48.10
2022-09-04T20:48:07.742Z,48.00
2022-09-04T20:52:42.898Z,47.90
2022-09-04T20:53:05.162Z,47.80
2022-09-04T20:53:59.910Z,48.10
2022-09-04T20:58:02.758Z,48.20
2022-09-04T21:03:12.304Z,48.20
2022-09-04T21:03:23.364Z,48.20
2022-09-04T21:05:25.476Z,48.10
2022-09-04T21:08:00.470Z,48.20
2022-09-04T21:10:33.234Z,48.30
2022-09-04T21:13:14.066Z,48.50
2022-09-04T21:15:49.075Z,48.50
2022-09-04T21:18:24.938Z,48.50
2022-09-04T21:21:03.349Z,48.40
2022-09-04T21:23:51.298Z,48.50
2022-09-04T21:26:38.795Z,48.50
2022-09-04T21:29:16.238Z,48.30
2022-09-04T21:31:53.576Z,48.50
2022-09-04T21:34:37.588Z,48.60
2022-09-04T21:37:17.468Z,48.60
2022-09-04T21:39:58.953Z,48.60
2022-09-04T21:42:38.938Z,48.70
2022-09-04T21:45:21.024Z,48.80
2022-09-04T21:48:10.247Z,48.60
2022-09-04T21:50:58.956Z,48.70
2022-09-04T21:53:54.374Z,48.90
2022-09-04T22:02:25.441Z,48.90
2022-09-04T22:02:36.874Z,48.90
2022-09-04T22:02:54.489Z,49.20
2022-09-04T22:05:31.707Z,49.30
2022-09-04T22:13:30.801Z,49.20
2022-09-04T22:13:37.374Z,49.30
2022-09-04T22:14:04.650Z,49.50
2022-09-04T22:16:40.728Z,49.60
2022-09-04T22:19:20.552Z,50.10
2022-09-04T22:22:03.686Z,50.10
2022-09-04T22:24:50.954Z,50.10
2022-09-04T22:27:37.653Z,50.10
2022-09-04T22:30:23.220Z,50.10
2022-09-04T22:33:09.793Z,49.90
2022-09-04T22:36:01.876Z,49.90
2022-09-04T22:38:52.942Z,50.10
2022-09-04T22:41:27.638Z,50.20
2022-09-04T22:43:59.957Z,50.30
2022-09-04T22:46:37.600Z,50.20
2022-09-04T22:49:36.336Z,50.40
2022-09-04T22:52:22.306Z,50.60
2022-09-04T22:55:29.349Z,50.70
2022-09-04T22:58:02.456Z,50.70
2022-09-04T23:00:35.392Z,50.70
2022-09-04T23:03:13.905Z,50.70
2022-09-04T23:06:14.044Z,50.70
2022-09-04T23:13:53.998Z,50.70
2022-09-04T23:13:58.376Z,50.80
2022-09-04T23:14:45.162Z,51.00
2022-09-04T23:17:19.264Z,51.10
2022-09-04T23:26:35.391Z,51.00
2022-09-04T23:26:41.675Z,50.80
2022-09-04T23:26:46.994Z,50.90
2022-09-04T23:29:00.198Z,50.90
2022-09-04T23:31:37.425Z,50.90
2022-09-04T23:34:16.763Z,51.10
2022-09-04T23:36:54.055Z,51.00
2022-09-04T23:39:50.155Z,51.00
2022-09-04T23:42:41.850Z,51.10
2022-09-04T23:45:29.969Z,51.10
2022-09-04T23:48:33.287Z,51.30
2022-09-04T23:51:05.379Z,51.30
2022-09-04T23:53:40.902Z,51.30
2022-09-04T23:56:26.375Z,51.40
2022-09-04T23:59:28.790Z,51.40
